Aviation Digital Data Service (ADDS)

Output produced by METARs form (2308 UTC 04 September 2015)
found at http://aviationweather.gov/adds/metars/
 
KLFT 042253Z 18004KT 10SM CLR 28/24 A2995 RMK AO2 SLP143 T02830244